Time;durP1;ratioP1;P1;durP2;ratioP2;P2;SDS_P1;SDS_P2;PMS_P1;PMS_P2;Temp;Humidity;BMP_temperature;BMP_pressure;BME280_temperature;BME280_humidity;BME280_pressure;Samples;Min_cycle;Max_cycle;Signal;HPM_P1;HPM_P2
2023/07/19 00:02:16;;;;;;;0.85;0.85;;;;;;;;;;7419499;19;20146;-88
2023/07/19 00:04:43;;;;;;;2.08;1.38;;;;;;;;;;7422408;19;20527;-88
2023/07/19 00:07:11;;;;;;;0.80;0.80;;;;;;;;;;7415823;19;20137;-88
2023/07/19 00:09:38;;;;;;;0.90;0.90;;;;;;;;;;7392636;19;20148;-87
2023/07/19 00:12:06;;;;;;;0.80;0.80;;;;;;;;;;7393901;19;20201;-88
2023/07/19 00:14:32;;;;;;;3.40;1.52;;;;;;;;;;7394591;19;20141;-87
2023/07/19 00:16:59;;;;;;;0.75;0.68;;;;;;;;;;7394230;19;20144;-87
2023/07/19 00:19:26;;;;;;;1.85;1.58;;;;;;;;;;7392938;19;20175;-87
2023/07/19 00:21:52;;;;;;;1.98;1.88;;;;;;;;;;7394794;19;20141;-88
2023/07/19 00:24:19;;;;;;;1.50;1.40;;;;;;;;;;7395324;19;20173;-87
2023/07/19 00:26:46;;;;;;;1.85;1.75;;;;;;;;;;7393080;19;20141;-87
2023/07/19 00:29:12;;;;;;;0.85;0.85;;;;;;;;;;7393450;19;20169;-87
2023/07/19 00:31:39;;;;;;;1.15;1.08;;;;;;;;;;7395530;19;20147;-87
2023/07/19 00:34:06;;;;;;;1.38;1.27;;;;;;;;;;7393956;19;20125;-87
2023/07/19 00:36:33;;;;;;;1.27;1.27;;;;;;;;;;7393813;19;20571;-87
2023/07/19 00:38:59;;;;;;;1.40;1.05;;;;;;;;;;7394300;19;20193;-87
2023/07/19 00:41:26;;;;;;;3.20;1.08;;;;;;;;;;7394705;19;20148;-87
2023/07/19 00:43:56;;;;;;;0.95;0.95;;;;;;;;;;7394687;19;21214;-87
2023/07/19 00:46:23;;;;;;;0.60;0.60;;;;;;;;;;7393632;19;20121;-87
2023/07/19 00:48:49;;;;;;;0.88;0.88;;;;;;;;;;7392237;19;20172;-87
2023/07/19 00:51:17;;;;;;;0.60;0.60;;;;;;;;;;7394437;19;20607;-87
2023/07/19 00:53:46;;;;;;;1.08;0.98;;;;;;;;;;7393760;19;20513;-86
2023/07/19 00:56:13;;;;;;;0.88;0.88;;;;;;;;;;7394305;19;20208;-87
2023/07/19 00:58:40;;;;;;;0.90;0.90;;;;;;;;;;7391288;19;20610;-87
2023/07/19 01:01:07;;;;;;;0.80;0.80;;;;;;;;;;7394436;19;20148;-87
2023/07/19 01:03:33;;;;;;;1.27;1.23;;;;;;;;;;7393420;19;20152;-87
2023/07/19 01:06:01;;;;;;;1.20;1.10;;;;;;;;;;7393430;19;20137;-86
2023/07/19 01:08:27;;;;;;;0.90;0.90;;;;;;;;;;7392092;19;20507;-88
2023/07/19 01:10:54;;;;;;;1.25;1.17;;;;;;;;;;7393613;19;20602;-86
2023/07/19 01:13:21;;;;;;;0.75;0.75;;;;;;;;;;7392762;19;20132;-87
2023/07/19 01:15:48;;;;;;;0.68;0.68;;;;;;;;;;7392863;19;20259;-87
2023/07/19 01:18:17;;;;;;;4.88;1.63;;;;;;;;;;7391976;19;20757;-87
2023/07/19 01:20:44;;;;;;;1.45;1.35;;;;;;;;;;7393542;19;20197;-87
2023/07/19 01:23:12;;;;;;;1.38;1.27;;;;;;;;;;7392731;19;20161;-87
2023/07/19 01:25:39;;;;;;;1.38;1.27;;;;;;;;;;7394590;19;20129;-87
2023/07/19 01:28:06;;;;;;;2.55;1.15;;;;;;;;;;7390690;19;20504;-87
2023/07/19 01:30:32;;;;;;;0.90;0.90;;;;;;;;;;7393435;19;20145;-87
2023/07/19 01:32:59;;;;;;;0.80;0.80;;;;;;;;;;7390314;19;20129;-87
2023/07/19 01:35:26;;;;;;;1.25;1.23;;;;;;;;;;7393262;19;20161;-87
2023/07/19 01:37:53;;;;;;;1.33;1.30;;;;;;;;;;7392126;19;20168;-87
2023/07/19 01:40:19;;;;;;;1.58;1.10;;;;;;;;;;7394100;19;20154;-87
2023/07/19 01:42:46;;;;;;;1.13;1.13;;;;;;;;;;7393449;19;20133;-87
2023/07/19 01:45:12;;;;;;;0.90;0.90;;;;;;;;;;7393316;19;20133;-87
2023/07/19 01:47:39;;;;;;;1.10;1.10;;;;;;;;;;7391020;19;20179;-87
2023/07/19 01:50:06;;;;;;;1.63;0.98;;;;;;;;;;7392205;19;20137;-86
2023/07/19 01:52:33;;;;;;;1.58;1.27;;;;;;;;;;7391337;19;20145;-87
2023/07/19 01:54:59;;;;;;;1.35;1.25;;;;;;;;;;7393004;19;20593;-87
2023/07/19 01:57:26;;;;;;;1.42;1.30;;;;;;;;;;7391445;19;20208;-86
2023/07/19 01:59:52;;;;;;;0.90;0.90;;;;;;;;;;7400077;19;20132;-85
2023/07/19 02:02:19;;;;;;;1.48;0.95;;;;;;;;;;7399740;19;20909;-87
2023/07/19 02:04:46;;;;;;;1.05;1.05;;;;;;;;;;7399687;19;20137;-87
2023/07/19 02:07:13;;;;;;;0.80;0.80;;;;;;;;;;7398718;19;20140;-87
2023/07/19 02:09:40;;;;;;;2.40;1.70;;;;;;;;;;7398895;19;20152;-87
2023/07/19 02:12:07;;;;;;;0.90;0.90;;;;;;;;;;7399830;19;20153;-87
2023/07/19 02:14:35;;;;;;;1.75;1.65;;;;;;;;;;7396513;19;20596;-87
2023/07/19 02:17:02;;;;;;;0.90;0.90;;;;;;;;;;7399303;19;20176;-87
2023/07/19 02:19:29;;;;;;;1.65;1.08;;;;;;;;;;7397344;19;20192;-87
2023/07/19 02:21:55;;;;;;;1.15;1.05;;;;;;;;;;7399862;19;20143;-87
2023/07/19 02:24:22;;;;;;;0.82;0.82;;;;;;;;;;7398742;19;20146;-87
2023/07/19 02:26:49;;;;;;;0.90;0.90;;;;;;;;;;7398976;19;20125;-87
2023/07/19 02:29:15;;;;;;;1.23;1.23;;;;;;;;;;7396502;19;20168;-87
2023/07/19 02:31:42;;;;;;;1.20;1.20;;;;;;;;;;7398291;19;20548;-87
2023/07/19 02:34:09;;;;;;;0.98;0.98;;;;;;;;;;7395472;19;20576;-87
2023/07/19 02:36:37;;;;;;;0.77;0.77;;;;;;;;;;7401723;19;20197;-87
2023/07/19 02:39:04;;;;;;;0.98;0.88;;;;;;;;;;7396713;19;20610;-87
2023/07/19 02:41:31;;;;;;;0.85;0.85;;;;;;;;;;7398812;19;20129;-88
2023/07/19 02:43:58;;;;;;;0.85;0.85;;;;;;;;;;7399312;19;20650;-87
2023/07/19 02:46:25;;;;;;;2.38;1.35;;;;;;;;;;7398247;19;20509;-88
2023/07/19 02:48:52;;;;;;;1.02;1.02;;;;;;;;;;7397133;19;20147;-88
2023/07/19 02:51:18;;;;;;;1.08;1.08;;;;;;;;;;7397732;19;20602;-86
2023/07/19 02:53:46;;;;;;;1.02;0.95;;;;;;;;;;7396571;19;20137;-87
2023/07/19 02:56:16;;;;;;;1.35;1.25;;;;;;;;;;7398742;19;20209;-87
2023/07/19 02:58:42;;;;;;;0.95;0.68;;;;;;;;;;7395581;19;20528;-87
2023/07/19 03:01:09;;;;;;;1.05;0.95;;;;;;;;;;7396684;19;20137;-87
2023/07/19 03:03:36;;;;;;;1.45;1.33;;;;;;;;;;7398450;19;20164;-87
2023/07/19 03:06:03;;;;;;;1.25;0.80;;;;;;;;;;7397104;19;20290;-87
2023/07/19 03:08:29;;;;;;;1.33;1.00;;;;;;;;;;7395535;19;20147;-86
2023/07/19 03:10:56;;;;;;;4.57;1.25;;;;;;;;;;7397318;19;20129;-87
2023/07/19 03:13:22;;;;;;;1.33;1.27;;;;;;;;;;7395226;19;20136;-86
2023/07/19 03:15:50;;;;;;;0.90;0.90;;;;;;;;;;7397386;19;20200;-87
2023/07/19 03:18:16;;;;;;;0.60;0.60;;;;;;;;;;7394634;19;20224;-87
2023/07/19 03:20:43;;;;;;;0.70;0.70;;;;;;;;;;7396732;19;20152;-85
2023/07/19 03:23:10;;;;;;;1.52;1.25;;;;;;;;;;7397146;19;20161;-86
2023/07/19 03:25:37;;;;;;;0.60;0.60;;;;;;;;;;7397081;19;20154;-86
2023/07/19 03:28:03;;;;;;;1.65;1.42;;;;;;;;;;7395597;19;20217;-86
2023/07/19 03:30:30;;;;;;;1.52;0.98;;;;;;;;;;7395245;19;20133;-85
2023/07/19 03:32:57;;;;;;;0.98;0.98;;;;;;;;;;7395630;19;20180;-86
2023/07/19 03:35:24;;;;;;;0.90;0.90;;;;;;;;;;7401462;19;20137;-86
2023/07/19 03:37:50;;;;;;;0.75;0.75;;;;;;;;;;7423620;19;20152;-86
2023/07/19 03:40:17;;;;;;;1.48;1.38;;;;;;;;;;7421390;19;20133;-87
2023/07/19 03:42:44;;;;;;;1.15;1.05;;;;;;;;;;7406160;19;20137;-86
2023/07/19 03:45:11;;;;;;;0.85;0.85;;;;;;;;;;7392688;19;20216;-86
2023/07/19 03:47:39;;;;;;;1.30;1.20;;;;;;;;;;7392884;19;20169;-85
2023/07/19 03:50:07;;;;;;;0.85;0.85;;;;;;;;;;7395492;19;20134;-87
2023/07/19 03:52:33;;;;;;;1.38;1.00;;;;;;;;;;7394567;19;20141;-86
2023/07/19 03:55:00;;;;;;;1.45;1.35;;;;;;;;;;7392830;19;20133;-87
2023/07/19 03:57:27;;;;;;;1.08;0.88;;;;;;;;;;7394457;19;20133;-87
2023/07/19 03:59:54;;;;;;;2.25;1.58;;;;;;;;;;7394999;19;20196;-87
2023/07/19 04:02:22;;;;;;;1.30;1.20;;;;;;;;;;7395351;19;20622;-87
2023/07/19 04:04:49;;;;;;;1.05;1.05;;;;;;;;;;7395221;19;20141;-87
2023/07/19 04:07:16;;;;;;;0.93;0.93;;;;;;;;;;7395171;19;20491;-87
2023/07/19 04:09:44;;;;;;;0.85;0.85;;;;;;;;;;7394950;19;20162;-87
2023/07/19 04:12:10;;;;;;;0.60;0.60;;;;;;;;;;7395888;19;20160;-87
2023/07/19 04:14:38;;;;;;;1.17;1.17;;;;;;;;;;7396910;19;20141;-87
2023/07/19 04:17:04;;;;;;;0.95;0.95;;;;;;;;;;7397569;19;20141;-87
2023/07/19 04:19:31;;;;;;;0.88;0.88;;;;;;;;;;7393668;19;20208;-87
2023/07/19 04:21:58;;;;;;;1.20;1.20;;;;;;;;;;7396070;19;20288;-87
2023/07/19 04:24:24;;;;;;;1.63;1.52;;;;;;;;;;7396065;19;20161;-87
2023/07/19 04:26:51;;;;;;;1.10;1.10;;;;;;;;;;7394389;19;20125;-87
2023/07/19 04:29:19;;;;;;;1.08;1.05;;;;;;;;;;7392155;19;20181;-87
2023/07/19 04:31:46;;;;;;;1.05;1.05;;;;;;;;;;7396074;19;20133;-87
2023/07/19 04:34:13;;;;;;;1.50;1.08;;;;;;;;;;7394704;19;20490;-87
2023/07/19 04:36:43;;;;;;;1.25;1.15;;;;;;;;;;7395045;19;20133;-88
2023/07/19 04:39:09;;;;;;;1.33;1.27;;;;;;;;;;7393828;19;20482;-88
2023/07/19 04:41:36;;;;;;;0.98;0.95;;;;;;;;;;7394322;19;20154;-87
2023/07/19 04:44:03;;;;;;;3.33;1.17;;;;;;;;;;7393832;19;20193;-87
2023/07/19 04:46:29;;;;;;;0.80;0.80;;;;;;;;;;7390847;19;20133;-87
2023/07/19 04:48:56;;;;;;;0.93;0.93;;;;;;;;;;7392096;19;20149;-87
2023/07/19 04:51:23;;;;;;;1.77;1.67;;;;;;;;;;7393370;19;20216;-87
2023/07/19 04:53:50;;;;;;;1.40;1.30;;;;;;;;;;7389234;19;20158;-88
2023/07/19 04:56:16;;;;;;;1.35;1.25;;;;;;;;;;7389441;19;20151;-87
2023/07/19 04:58:43;;;;;;;1.77;1.67;;;;;;;;;;7383597;19;20665;-87
2023/07/19 05:01:10;;;;;;;1.15;1.15;;;;;;;;;;7391497;19;20710;-88
2023/07/19 05:03:37;;;;;;;1.45;1.40;;;;;;;;;;7391223;19;20140;-89
2023/07/19 05:06:04;;;;;;;1.08;1.08;;;;;;;;;;7392134;19;20172;-86
2023/07/19 05:12:04;;;;;;;1.00;1.00;;;;;;;;;;7398227;19;20147;-88
2023/07/19 05:14:31;;;;;;;3.00;1.63;;;;;;;;;;7394770;19;20144;-88
2023/07/19 05:16:58;;;;;;;1.20;1.13;;;;;;;;;;7390326;19;20149;-86
2023/07/19 05:19:25;;;;;;;1.15;1.15;;;;;;;;;;7390026;19;20168;-87
2023/07/19 05:21:53;;;;;;;1.35;1.10;;;;;;;;;;7393579;19;20591;-86
2023/07/19 05:24:19;;;;;;;1.10;0.80;;;;;;;;;;7395113;19;20657;-87
2023/07/19 05:26:47;;;;;;;0.52;0.52;;;;;;;;;;7395637;19;20137;-87
2023/07/19 05:29:13;;;;;;;1.08;1.08;;;;;;;;;;7419134;19;20168;-87
2023/07/19 05:31:40;;;;;;;0.85;0.85;;;;;;;;;;7423486;19;20137;-87
2023/07/19 05:34:08;;;;;;;1.05;1.05;;;;;;;;;;7423286;19;20587;-85
2023/07/19 05:36:37;;;;;;;0.90;0.90;;;;;;;;;;7412785;19;20137;-86
2023/07/19 05:39:04;;;;;;;1.00;1.00;;;;;;;;;;7407950;19;20157;-86
2023/07/19 05:41:30;;;;;;;0.77;0.77;;;;;;;;;;7407309;19;20152;-85
2023/07/19 05:43:57;;;;;;;1.15;1.05;;;;;;;;;;7402674;19;20125;-86
2023/07/19 05:46:37;;;;;;;2.20;1.15;;;;;;;;;;7398234;19;20544;-87
2023/07/19 05:49:07;;;;;;;1.80;1.58;;;;;;;;;;7403609;19;20153;-88
2023/07/19 05:51:47;;;;;;;0.63;0.63;;;;;;;;;;7402262;19;20171;-88
2023/07/19 05:54:15;;;;;;;1.40;1.30;;;;;;;;;;7403864;19;20144;-87
2023/07/19 05:56:42;;;;;;;1.50;1.27;;;;;;;;;;7400213;19;20125;-87
2023/07/19 07:33:16;;;;;;;0.90;0.90;;;;;;;;;;7391995;19;20217;-83
2023/07/19 07:40:16;;;;;;;1.00;1.00;;;;;;;;;;7389294;19;20648;-81
2023/07/19 07:47:45;;;;;;;0.60;0.60;;;;;;;;;;7385231;19;20602;-82
2023/07/19 07:51:23;;;;;;;1.00;1.00;;;;;;;;;;7385551;19;20692;-83
2023/07/19 07:55:09;;;;;;;0.95;0.95;;;;;;;;;;7382913;19;20168;-84
2023/07/19 07:58:44;;;;;;;0.55;0.55;;;;;;;;;;7381617;19;20148;-85
2023/07/19 08:06:11;;;;;;;0.88;0.88;;;;;;;;;;7390192;19;20237;-84
2023/07/19 08:08:59;;;;;;;1.55;1.23;;;;;;;;;;7381240;19;20900;-84
2023/07/19 08:11:55;;;;;;;1.48;0.55;;;;;;;;;;7385202;19;20137;-84
2023/07/19 08:19:13;;;;;;;1.70;1.27;;;;;;;;;;7386751;19;20127;-84
2023/07/19 08:22:24;;;;;;;1.10;0.90;;;;;;;;;;7381883;19;20164;-84
2023/07/19 08:40:20;;;;;;;1.00;0.98;;;;;;;;;;7384311;19;20147;-83
2023/07/19 08:47:16;;;;;;;1.15;1.15;;;;;;;;;;7385040;19;20560;-84
2023/07/19 10:10:51;;;;;;;2.00;1.05;;;;;;;;;;7398595;19;20701;-87
2023/07/19 11:24:09;;;;;;;0.70;0.70;;;;;;;;;;7398980;19;20138;-85
2023/07/19 18:32:16;;;;;;;0.80;0.80;;;;;;;;;;7399024;19;21282;-86
2023/07/19 18:50:45;;;;;;;5.65;0.90;;;;;;;;;;7415631;19;20138;-90
2023/07/19 19:39:50;;;;;;;0.68;0.68;;;;;;;;;;7415125;19;20132;-89
2023/07/19 19:46:15;;;;;;;0.70;0.70;;;;;;;;;;7398910;19;20764;-86
2023/07/19 20:04:41;;;;;;;1.30;1.20;;;;;;;;;;7385693;19;20144;-85
2023/07/19 21:59:41;;;;;;;0.57;0.57;;;;;;;;;;7388871;19;20144;-84
2023/07/19 22:02:08;;;;;;;0.93;0.93;;;;;;;;;;7383543;19;20245;-85
2023/07/19 22:04:36;;;;;;;0.68;0.68;;;;;;;;;;7386402;19;20197;-85
2023/07/19 22:07:02;;;;;;;0.90;0.60;;;;;;;;;;7385854;19;20141;-85
2023/07/19 22:09:29;;;;;;;0.50;0.50;;;;;;;;;;7388660;19;20147;-85
2023/07/19 22:11:56;;;;;;;0.60;0.60;;;;;;;;;;7387305;19;20240;-85
2023/07/19 22:14:22;;;;;;;0.63;0.63;;;;;;;;;;7390267;19;20133;-85
2023/07/19 22:16:49;;;;;;;0.57;0.57;;;;;;;;;;7398457;19;20204;-86
2023/07/19 22:19:16;;;;;;;1.02;0.95;;;;;;;;;;7398727;19;20136;-86
2023/07/19 22:21:43;;;;;;;0.70;0.70;;;;;;;;;;7395916;19;20228;-86
2023/07/19 22:24:10;;;;;;;0.50;0.50;;;;;;;;;;7399395;19;20567;-83
2023/07/19 22:26:36;;;;;;;0.52;0.52;;;;;;;;;;7396457;19;20150;-84
2023/07/19 22:29:04;;;;;;;0.40;0.40;;;;;;;;;;7398419;19;20675;-86
2023/07/19 22:31:32;;;;;;;1.50;0.85;;;;;;;;;;7395248;19;20164;-85
2023/07/19 22:33:59;;;;;;;0.75;0.75;;;;;;;;;;7396608;19;20144;-84
2023/07/19 22:36:26;;;;;;;0.65;0.65;;;;;;;;;;7393584;19;20603;-86
2023/07/19 22:38:55;;;;;;;0.70;0.65;;;;;;;;;;7394765;19;20176;-84
2023/07/19 22:41:23;;;;;;;1.30;0.73;;;;;;;;;;7392986;19;20168;-84
2023/07/19 22:43:50;;;;;;;0.90;0.90;;;;;;;;;;7395016;19;20157;-85
2023/07/19 22:46:18;;;;;;;1.20;0.57;;;;;;;;;;7394398;19;20153;-86
2023/07/19 22:48:49;;;;;;;0.63;0.63;;;;;;;;;;7395847;19;20495;-86
2023/07/19 22:51:16;;;;;;;0.50;0.50;;;;;;;;;;7398161;19;20160;-87
2023/07/19 22:53:46;;;;;;;0.90;0.90;;;;;;;;;;7404530;19;20133;-87
2023/07/19 22:56:13;;;;;;;0.57;0.57;;;;;;;;;;7399099;19;20156;-88
2023/07/19 22:58:40;;;;;;;0.70;0.70;;;;;;;;;;7407824;19;21050;-86
2023/07/19 23:01:07;;;;;;;0.40;0.40;;;;;;;;;;7406202;19;20192;-88
2023/07/19 23:03:34;;;;;;;0.63;0.63;;;;;;;;;;7406588;19;20185;-87
2023/07/19 23:06:03;;;;;;;0.93;0.93;;;;;;;;;;7409183;19;20193;-87
2023/07/19 23:08:30;;;;;;;0.60;0.60;;;;;;;;;;7408530;19;20140;-87
2023/07/19 23:10:57;;;;;;;1.42;1.02;;;;;;;;;;7407971;19;20471;-86
2023/07/19 23:13:24;;;;;;;0.60;0.60;;;;;;;;;;7426013;19;20133;-89
2023/07/19 23:15:54;;;;;;;0.43;0.43;;;;;;;;;;7426871;19;20136;-89
2023/07/19 23:18:22;;;;;;;0.50;0.50;;;;;;;;;;7420900;19;20129;-87
2023/07/19 23:20:52;;;;;;;0.50;0.50;;;;;;;;;;7393851;19;20139;-86
2023/07/19 23:23:20;;;;;;;0.40;0.40;;;;;;;;;;7394845;19;20143;-87
2023/07/19 23:25:50;;;;;;;0.80;0.75;;;;;;;;;;7390998;19;20137;-85
2023/07/19 23:28:17;;;;;;;0.60;0.60;;;;;;;;;;7391159;19;20140;-87
2023/07/19 23:30:44;;;;;;;0.45;0.45;;;;;;;;;;7391778;19;20168;-87
2023/07/19 23:33:11;;;;;;;1.05;0.95;;;;;;;;;;7391762;19;20216;-87
2023/07/19 23:35:38;;;;;;;0.98;0.73;;;;;;;;;;7391535;19;20150;-87
2023/07/19 23:38:05;;;;;;;0.88;0.60;;;;;;;;;;7390829;19;20141;-84
2023/07/19 23:40:32;;;;;;;0.60;0.60;;;;;;;;;;7391421;19;20144;-86
2023/07/19 23:42:59;;;;;;;0.50;0.50;;;;;;;;;;7393941;19;20144;-87
2023/07/19 23:45:26;;;;;;;0.68;0.68;;;;;;;;;;7392392;19;20189;-87
2023/07/19 23:47:54;;;;;;;0.80;0.80;;;;;;;;;;7389643;19;20132;-88
2023/07/19 23:50:21;;;;;;;0.70;0.70;;;;;;;;;;7390223;19;20157;-86
2023/07/19 23:52:48;;;;;;;0.65;0.65;;;;;;;;;;7391554;19;20151;-86
2023/07/19 23:55:15;;;;;;;0.50;0.50;;;;;;;;;;7388478;19;20133;-86
2023/07/19 23:57:41;;;;;;;0.88;0.80;;;;;;;;;;7389241;19;20141;-86
